sensor_id;sensor_type;location;lat;lon;timestamp;P1;durP1;ratioP1;P2;durP2;ratioP2
36359;SDS011;22388;52.432;20.662;2023-12-20T00:00:07;33.17;;;22.25;;
36359;SDS011;22388;52.432;20.662;2023-12-20T00:03:32;30.52;;;21.63;;
36359;SDS011;22388;52.432;20.662;2023-12-20T00:06:56;34.08;;;23.08;;
36359;SDS011;22388;52.432;20.662;2023-12-20T00:10:20;28.23;;;20.52;;
36359;SDS011;22388;52.432;20.662;2023-12-20T00:13:44;29.55;;;19.77;;
36359;SDS011;22388;52.432;20.662;2023-12-20T00:17:08;27.67;;;19.58;;
36359;SDS011;22388;52.432;20.662;2023-12-20T00:20:32;28.85;;;20.48;;
36359;SDS011;22388;52.432;20.662;2023-12-20T00:23:57;30.13;;;19.33;;
36359;SDS011;22388;52.432;20.662;2023-12-20T00:27:21;27.88;;;19.63;;
36359;SDS011;22388;52.432;20.662;2023-12-20T00:30:45;30.83;;;20.17;;
36359;SDS011;22388;52.432;20.662;2023-12-20T00:34:10;28.27;;;19.20;;
36359;SDS011;22388;52.432;20.662;2023-12-20T00:37:34;26.77;;;18.98;;
36359;SDS011;22388;52.432;20.662;2023-12-20T00:40:58;28.35;;;19.88;;
36359;SDS011;22388;52.432;20.662;2023-12-20T00:44:22;27.85;;;18.77;;
36359;SDS011;22388;52.432;20.662;2023-12-20T00:47:46;25.73;;;18.45;;
36359;SDS011;22388;52.432;20.662;2023-12-20T00:51:11;25.17;;;18.33;;
36359;SDS011;22388;52.432;20.662;2023-12-20T00:54:35;27.23;;;19.15;;
36359;SDS011;22388;52.432;20.662;2023-12-20T00:57:59;26.33;;;18.73;;
36359;SDS011;22388;52.432;20.662;2023-12-20T01:01:24;26.55;;;19.58;;
36359;SDS011;22388;52.432;20.662;2023-12-20T01:04:48;27.83;;;19.30;;
36359;SDS011;22388;52.432;20.662;2023-12-20T01:08:12;27.60;;;19.48;;
36359;SDS011;22388;52.432;20.662;2023-12-20T01:11:36;27.50;;;19.38;;
36359;SDS011;22388;52.432;20.662;2023-12-20T01:15:01;28.83;;;20.40;;
36359;SDS011;22388;52.432;20.662;2023-12-20T01:18:25;29.23;;;19.98;;
36359;SDS011;22388;52.432;20.662;2023-12-20T01:21:50;27.30;;;19.83;;
36359;SDS011;22388;52.432;20.662;2023-12-20T01:25:14;28.02;;;19.33;;
36359;SDS011;22388;52.432;20.662;2023-12-20T01:28:38;27.27;;;20.33;;
36359;SDS011;22388;52.432;20.662;2023-12-20T01:32:02;28.08;;;19.60;;
36359;SDS011;22388;52.432;20.662;2023-12-20T01:35:26;25.50;;;19.00;;
36359;SDS011;22388;52.432;20.662;2023-12-20T01:38:50;30.55;;;20.15;;
36359;SDS011;22388;52.432;20.662;2023-12-20T01:42:15;28.60;;;19.70;;
36359;SDS011;22388;52.432;20.662;2023-12-20T01:45:39;27.45;;;19.58;;
36359;SDS011;22388;52.432;20.662;2023-12-20T01:49:03;28.05;;;19.38;;
36359;SDS011;22388;52.432;20.662;2023-12-20T01:52:28;26.63;;;19.10;;
36359;SDS011;22388;52.432;20.662;2023-12-20T01:55:54;27.50;;;18.70;;
36359;SDS011;22388;52.432;20.662;2023-12-20T01:59:19;27.02;;;18.90;;
36359;SDS011;22388;52.432;20.662;2023-12-20T02:02:48;26.10;;;17.98;;
36359;SDS011;22388;52.432;20.662;2023-12-20T02:06:12;25.20;;;18.10;;
36359;SDS011;22388;52.432;20.662;2023-12-20T02:09:37;26.02;;;18.17;;
36359;SDS011;22388;52.432;20.662;2023-12-20T02:13:03;24.67;;;17.83;;
36359;SDS011;22388;52.432;20.662;2023-12-20T02:16:27;22.58;;;16.30;;
36359;SDS011;22388;52.432;20.662;2023-12-20T02:19:52;22.60;;;16.63;;
36359;SDS011;22388;52.432;20.662;2023-12-20T02:23:16;24.70;;;17.58;;
36359;SDS011;22388;52.432;20.662;2023-12-20T02:26:42;23.42;;;17.55;;
36359;SDS011;22388;52.432;20.662;2023-12-20T02:30:07;25.30;;;17.95;;
36359;SDS011;22388;52.432;20.662;2023-12-20T02:33:32;23.77;;;17.95;;
36359;SDS011;22388;52.432;20.662;2023-12-20T02:36:56;24.02;;;17.10;;
36359;SDS011;22388;52.432;20.662;2023-12-20T02:40:20;25.70;;;17.95;;
36359;SDS011;22388;52.432;20.662;2023-12-20T02:43:44;24.20;;;17.83;;
36359;SDS011;22388;52.432;20.662;2023-12-20T02:47:09;21.38;;;16.75;;
36359;SDS011;22388;52.432;20.662;2023-12-20T02:50:33;24.92;;;18.00;;
36359;SDS011;22388;52.432;20.662;2023-12-20T02:53:57;23.13;;;16.85;;
36359;SDS011;22388;52.432;20.662;2023-12-20T02:57:22;22.88;;;16.73;;
36359;SDS011;22388;52.432;20.662;2023-12-20T03:00:46;23.25;;;16.17;;
36359;SDS011;22388;52.432;20.662;2023-12-20T03:04:11;22.80;;;16.73;;
36359;SDS011;22388;52.432;20.662;2023-12-20T03:07:36;26.08;;;17.05;;
36359;SDS011;22388;52.432;20.662;2023-12-20T03:11:00;26.17;;;16.85;;
36359;SDS011;22388;52.432;20.662;2023-12-20T03:14:24;28.15;;;18.77;;
36359;SDS011;22388;52.432;20.662;2023-12-20T03:17:49;31.40;;;20.17;;
36359;SDS011;22388;52.432;20.662;2023-12-20T03:21:14;27.63;;;19.52;;
36359;SDS011;22388;52.432;20.662;2023-12-20T03:24:38;30.48;;;19.73;;
36359;SDS011;22388;52.432;20.662;2023-12-20T03:28:02;26.13;;;18.67;;
36359;SDS011;22388;52.432;20.662;2023-12-20T03:31:26;25.90;;;18.15;;
36359;SDS011;22388;52.432;20.662;2023-12-20T03:34:50;25.00;;;17.73;;
36359;SDS011;22388;52.432;20.662;2023-12-20T03:38:15;26.05;;;18.27;;
36359;SDS011;22388;52.432;20.662;2023-12-20T03:41:39;27.88;;;18.63;;
36359;SDS011;22388;52.432;20.662;2023-12-20T03:45:03;25.83;;;19.15;;
36359;SDS011;22388;52.432;20.662;2023-12-20T03:48:28;24.73;;;17.48;;
36359;SDS011;22388;52.432;20.662;2023-12-20T03:51:53;24.48;;;17.00;;
36359;SDS011;22388;52.432;20.662;2023-12-20T03:55:17;22.77;;;16.05;;
36359;SDS011;22388;52.432;20.662;2023-12-20T03:58:41;21.88;;;16.20;;
36359;SDS011;22388;52.432;20.662;2023-12-20T04:02:05;20.48;;;14.88;;
36359;SDS011;22388;52.432;20.662;2023-12-20T04:05:29;22.70;;;15.30;;
36359;SDS011;22388;52.432;20.662;2023-12-20T04:08:54;21.40;;;14.85;;
36359;SDS011;22388;52.432;20.662;2023-12-20T04:12:18;23.70;;;16.30;;
36359;SDS011;22388;52.432;20.662;2023-12-20T04:15:43;20.35;;;14.73;;
36359;SDS011;22388;52.432;20.662;2023-12-20T04:19:07;22.00;;;15.05;;
36359;SDS011;22388;52.432;20.662;2023-12-20T04:22:32;23.20;;;16.15;;
36359;SDS011;22388;52.432;20.662;2023-12-20T04:25:56;24.88;;;15.48;;
36359;SDS011;22388;52.432;20.662;2023-12-20T04:29:20;23.08;;;14.48;;
36359;SDS011;22388;52.432;20.662;2023-12-20T04:32:44;20.90;;;14.55;;
36359;SDS011;22388;52.432;20.662;2023-12-20T04:36:08;18.80;;;13.63;;
36359;SDS011;22388;52.432;20.662;2023-12-20T04:39:33;18.30;;;13.15;;
36359;SDS011;22388;52.432;20.662;2023-12-20T04:42:57;20.35;;;13.13;;
36359;SDS011;22388;52.432;20.662;2023-12-20T04:46:21;18.15;;;13.35;;
36359;SDS011;22388;52.432;20.662;2023-12-20T04:49:45;23.85;;;13.93;;
36359;SDS011;22388;52.432;20.662;2023-12-20T04:53:09;20.38;;;14.18;;
36359;SDS011;22388;52.432;20.662;2023-12-20T04:56:35;19.02;;;14.25;;
36359;SDS011;22388;52.432;20.662;2023-12-20T04:59:59;20.45;;;12.38;;
36359;SDS011;22388;52.432;20.662;2023-12-20T05:03:23;17.15;;;13.15;;
36359;SDS011;22388;52.432;20.662;2023-12-20T05:06:47;18.30;;;12.40;;
36359;SDS011;22388;52.432;20.662;2023-12-20T05:10:12;16.50;;;11.48;;
36359;SDS011;22388;52.432;20.662;2023-12-20T05:13:38;18.25;;;12.00;;
36359;SDS011;22388;52.432;20.662;2023-12-20T05:17:02;18.42;;;12.27;;
36359;SDS011;22388;52.432;20.662;2023-12-20T05:20:26;15.82;;;11.63;;
36359;SDS011;22388;52.432;20.662;2023-12-20T05:23:50;17.02;;;12.23;;
36359;SDS011;22388;52.432;20.662;2023-12-20T05:27:15;18.80;;;13.20;;
36359;SDS011;22388;52.432;20.662;2023-12-20T05:30:39;17.00;;;12.05;;
36359;SDS011;22388;52.432;20.662;2023-12-20T05:34:03;17.25;;;12.93;;
36359;SDS011;22388;52.432;20.662;2023-12-20T05:37:28;18.10;;;12.45;;
36359;SDS011;22388;52.432;20.662;2023-12-20T05:40:52;17.20;;;12.93;;
36359;SDS011;22388;52.432;20.662;2023-12-20T05:44:16;17.58;;;12.48;;
36359;SDS011;22388;52.432;20.662;2023-12-20T05:47:40;18.65;;;12.32;;
36359;SDS011;22388;52.432;20.662;2023-12-20T05:51:04;18.20;;;12.80;;
36359;SDS011;22388;52.432;20.662;2023-12-20T05:54:31;18.15;;;13.13;;
36359;SDS011;22388;52.432;20.662;2023-12-20T05:57:55;18.73;;;12.90;;
36359;SDS011;22388;52.432;20.662;2023-12-20T06:01:23;19.15;;;13.90;;
36359;SDS011;22388;52.432;20.662;2023-12-20T06:04:48;17.83;;;12.88;;
36359;SDS011;22388;52.432;20.662;2023-12-20T06:08:12;19.75;;;13.75;;
36359;SDS011;22388;52.432;20.662;2023-12-20T06:11:40;19.50;;;13.88;;
36359;SDS011;22388;52.432;20.662;2023-12-20T06:15:04;20.70;;;14.10;;
36359;SDS011;22388;52.432;20.662;2023-12-20T06:18:30;18.27;;;13.00;;
36359;SDS011;22388;52.432;20.662;2023-12-20T06:21:54;19.10;;;13.13;;
36359;SDS011;22388;52.432;20.662;2023-12-20T06:25:18;17.98;;;12.43;;
36359;SDS011;22388;52.432;20.662;2023-12-20T06:28:42;18.35;;;12.43;;
36359;SDS011;22388;52.432;20.662;2023-12-20T06:32:07;16.25;;;11.63;;
36359;SDS011;22388;52.432;20.662;2023-12-20T06:35:32;18.63;;;13.25;;
36359;SDS011;22388;52.432;20.662;2023-12-20T06:38:56;18.70;;;12.68;;
36359;SDS011;22388;52.432;20.662;2023-12-20T06:42:22;16.40;;;12.07;;
36359;SDS011;22388;52.432;20.662;2023-12-20T06:45:46;16.70;;;12.02;;
36359;SDS011;22388;52.432;20.662;2023-12-20T06:49:11;17.88;;;11.88;;
36359;SDS011;22388;52.432;20.662;2023-12-20T06:52:36;17.40;;;12.35;;
36359;SDS011;22388;52.432;20.662;2023-12-20T06:56:00;19.10;;;12.25;;
36359;SDS011;22388;52.432;20.662;2023-12-20T06:59:24;19.50;;;12.38;;
36359;SDS011;22388;52.432;20.662;2023-12-20T07:02:48;17.38;;;12.23;;
36359;SDS011;22388;52.432;20.662;2023-12-20T07:06:12;16.35;;;12.15;;
36359;SDS011;22388;52.432;20.662;2023-12-20T07:09:36;17.55;;;12.85;;
36359;SDS011;22388;52.432;20.662;2023-12-20T07:13:00;18.73;;;12.80;;
36359;SDS011;22388;52.432;20.662;2023-12-20T07:16:24;18.38;;;12.93;;
36359;SDS011;22388;52.432;20.662;2023-12-20T07:19:48;20.70;;;13.27;;
36359;SDS011;22388;52.432;20.662;2023-12-20T07:23:13;19.35;;;13.98;;
36359;SDS011;22388;52.432;20.662;2023-12-20T07:26:37;18.02;;;13.73;;
36359;SDS011;22388;52.432;20.662;2023-12-20T07:30:01;19.63;;;14.15;;
36359;SDS011;22388;52.432;20.662;2023-12-20T07:33:25;18.83;;;13.93;;
36359;SDS011;22388;52.432;20.662;2023-12-20T07:36:49;18.52;;;13.57;;
36359;SDS011;22388;52.432;20.662;2023-12-20T07:40:14;18.23;;;13.32;;
36359;SDS011;22388;52.432;20.662;2023-12-20T07:43:38;17.80;;;13.70;;
36359;SDS011;22388;52.432;20.662;2023-12-20T07:47:02;21.90;;;14.55;;
36359;SDS011;22388;52.432;20.662;2023-12-20T07:50:26;22.58;;;14.60;;
36359;SDS011;22388;52.432;20.662;2023-12-20T07:53:51;21.60;;;14.32;;
36359;SDS011;22388;52.432;20.662;2023-12-20T07:57:15;20.17;;;13.65;;
36359;SDS011;22388;52.432;20.662;2023-12-20T08:00:39;21.40;;;14.90;;
36359;SDS011;22388;52.432;20.662;2023-12-20T08:04:03;20.58;;;15.02;;
36359;SDS011;22388;52.432;20.662;2023-12-20T08:07:28;19.85;;;13.93;;
36359;SDS011;22388;52.432;20.662;2023-12-20T08:10:52;22.20;;;14.60;;
36359;SDS011;22388;52.432;20.662;2023-12-20T08:14:16;19.45;;;13.68;;
36359;SDS011;22388;52.432;20.662;2023-12-20T08:17:40;22.58;;;13.48;;
36359;SDS011;22388;52.432;20.662;2023-12-20T08:21:04;20.77;;;13.73;;
36359;SDS011;22388;52.432;20.662;2023-12-20T08:24:29;17.15;;;12.90;;
36359;SDS011;22388;52.432;20.662;2023-12-20T08:27:53;19.75;;;13.60;;
36359;SDS011;22388;52.432;20.662;2023-12-20T08:31:18;18.50;;;12.52;;
36359;SDS011;22388;52.432;20.662;2023-12-20T08:34:42;16.98;;;12.70;;
36359;SDS011;22388;52.432;20.662;2023-12-20T08:38:06;17.50;;;12.45;;
36359;SDS011;22388;52.432;20.662;2023-12-20T08:41:32;18.02;;;12.20;;
36359;SDS011;22388;52.432;20.662;2023-12-20T08:44:57;18.90;;;12.60;;
36359;SDS011;22388;52.432;20.662;2023-12-20T08:48:21;16.95;;;12.35;;
36359;SDS011;22388;52.432;20.662;2023-12-20T08:51:45;18.98;;;12.85;;
36359;SDS011;22388;52.432;20.662;2023-12-20T08:55:09;16.92;;;11.90;;
36359;SDS011;22388;52.432;20.662;2023-12-20T08:58:33;17.20;;;12.07;;
36359;SDS011;22388;52.432;20.662;2023-12-20T09:01:58;18.67;;;11.65;;
36359;SDS011;22388;52.432;20.662;2023-12-20T09:05:22;16.92;;;11.80;;
36359;SDS011;22388;52.432;20.662;2023-12-20T09:08:46;18.23;;;11.32;;
36359;SDS011;22388;52.432;20.662;2023-12-20T09:12:10;18.23;;;11.27;;
36359;SDS011;22388;52.432;20.662;2023-12-20T09:15:34;17.20;;;11.65;;
36359;SDS011;22388;52.432;20.662;2023-12-20T09:18:58;18.25;;;12.38;;
36359;SDS011;22388;52.432;20.662;2023-12-20T09:26:07;16.48;;;11.13;;
36359;SDS011;22388;52.432;20.662;2023-12-20T09:29:31;17.88;;;11.63;;
36359;SDS011;22388;52.432;20.662;2023-12-20T09:32:57;17.20;;;11.02;;
36359;SDS011;22388;52.432;20.662;2023-12-20T09:36:21;15.93;;;11.32;;
36359;SDS011;22388;52.432;20.662;2023-12-20T09:39:45;16.67;;;11.10;;
36359;SDS011;22388;52.432;20.662;2023-12-20T09:43:18;15.20;;;10.45;;
36359;SDS011;22388;52.432;20.662;2023-12-20T09:46:44;14.25;;;10.27;;
36359;SDS011;22388;52.432;20.662;2023-12-20T09:50:08;15.85;;;10.30;;
36359;SDS011;22388;52.432;20.662;2023-12-20T09:53:32;14.35;;;10.15;;
36359;SDS011;22388;52.432;20.662;2023-12-20T09:56:57;14.70;;;10.18;;
36359;SDS011;22388;52.432;20.662;2023-12-20T10:00:22;15.48;;;10.57;;
36359;SDS011;22388;52.432;20.662;2023-12-20T10:03:47;14.25;;;10.20;;
36359;SDS011;22388;52.432;20.662;2023-12-20T10:07:14;16.15;;;10.35;;
36359;SDS011;22388;52.432;20.662;2023-12-20T10:10:39;16.27;;;11.07;;
36359;SDS011;22388;52.432;20.662;2023-12-20T10:14:03;16.98;;;11.07;;
36359;SDS011;22388;52.432;20.662;2023-12-20T10:17:28;14.18;;;10.23;;
36359;SDS011;22388;52.432;20.662;2023-12-20T10:20:53;16.90;;;11.00;;
36359;SDS011;22388;52.432;20.662;2023-12-20T10:24:18;15.77;;;10.25;;
36359;SDS011;22388;52.432;20.662;2023-12-20T10:27:42;15.15;;;10.68;;
36359;SDS011;22388;52.432;20.662;2023-12-20T10:31:06;16.65;;;10.77;;
36359;SDS011;22388;52.432;20.662;2023-12-20T10:34:57;14.70;;;11.20;;
36359;SDS011;22388;52.432;20.662;2023-12-20T10:38:21;15.07;;;10.90;;
36359;SDS011;22388;52.432;20.662;2023-12-20T10:41:45;16.50;;;10.55;;
36359;SDS011;22388;52.432;20.662;2023-12-20T10:45:09;14.73;;;10.15;;
36359;SDS011;22388;52.432;20.662;2023-12-20T10:48:33;16.20;;;10.18;;
36359;SDS011;22388;52.432;20.662;2023-12-20T10:51:59;15.85;;;10.48;;
36359;SDS011;22388;52.432;20.662;2023-12-20T10:55:24;14.55;;;10.15;;
36359;SDS011;22388;52.432;20.662;2023-12-20T10:58:51;13.65;;;9.75;;
36359;SDS011;22388;52.432;20.662;2023-12-20T11:02:15;13.57;;;9.60;;
36359;SDS011;22388;52.432;20.662;2023-12-20T11:05:44;17.27;;;10.13;;
36359;SDS011;22388;52.432;20.662;2023-12-20T11:09:20;14.32;;;9.43;;
36359;SDS011;22388;52.432;20.662;2023-12-20T11:16:22;13.55;;;9.30;;
36359;SDS011;22388;52.432;20.662;2023-12-20T11:23:16;14.13;;;10.05;;
36359;SDS011;22388;52.432;20.662;2023-12-20T11:26:41;13.63;;;9.38;;
36359;SDS011;22388;52.432;20.662;2023-12-20T11:30:12;15.27;;;10.38;;
36359;SDS011;22388;52.432;20.662;2023-12-20T11:33:39;13.20;;;9.38;;
36359;SDS011;22388;52.432;20.662;2023-12-20T11:37:06;13.57;;;9.05;;
36359;SDS011;22388;52.432;20.662;2023-12-20T11:40:33;15.57;;;9.80;;
36359;SDS011;22388;52.432;20.662;2023-12-20T11:43:57;14.77;;;8.93;;
36359;SDS011;22388;52.432;20.662;2023-12-20T11:47:21;10.95;;;8.00;;
36359;SDS011;22388;52.432;20.662;2023-12-20T11:50:45;15.15;;;8.70;;
36359;SDS011;22388;52.432;20.662;2023-12-20T11:54:09;13.68;;;9.02;;
36359;SDS011;22388;52.432;20.662;2023-12-20T11:57:34;17.95;;;8.95;;
36359;SDS011;22388;52.432;20.662;2023-12-20T12:00:58;13.40;;;9.07;;
36359;SDS011;22388;52.432;20.662;2023-12-20T12:04:26;13.63;;;8.60;;
36359;SDS011;22388;52.432;20.662;2023-12-20T12:07:51;14.55;;;8.35;;
36359;SDS011;22388;52.432;20.662;2023-12-20T12:11:15;13.65;;;8.35;;
36359;SDS011;22388;52.432;20.662;2023-12-20T12:14:40;11.32;;;8.20;;
36359;SDS011;22388;52.432;20.662;2023-12-20T12:18:04;13.43;;;8.80;;
36359;SDS011;22388;52.432;20.662;2023-12-20T12:21:29;13.27;;;7.55;;
36359;SDS011;22388;52.432;20.662;2023-12-20T12:24:53;12.13;;;7.70;;
36359;SDS011;22388;52.432;20.662;2023-12-20T12:28:21;13.60;;;7.40;;
36359;SDS011;22388;52.432;20.662;2023-12-20T12:31:45;11.98;;;7.97;;
36359;SDS011;22388;52.432;20.662;2023-12-20T12:35:09;14.07;;;8.73;;
36359;SDS011;22388;52.432;20.662;2023-12-20T12:38:33;14.52;;;8.57;;
36359;SDS011;22388;52.432;20.662;2023-12-20T12:41:58;15.50;;;8.73;;
36359;SDS011;22388;52.432;20.662;2023-12-20T12:45:22;16.08;;;9.10;;
36359;SDS011;22388;52.432;20.662;2023-12-20T12:48:46;13.43;;;8.73;;
36359;SDS011;22388;52.432;20.662;2023-12-20T12:52:11;16.65;;;9.00;;
36359;SDS011;22388;52.432;20.662;2023-12-20T12:55:35;16.50;;;8.45;;
36359;SDS011;22388;52.432;20.662;2023-12-20T12:58:59;14.68;;;8.23;;
36359;SDS011;22388;52.432;20.662;2023-12-20T13:02:23;15.25;;;8.15;;
36359;SDS011;22388;52.432;20.662;2023-12-20T13:05:47;14.18;;;6.88;;
36359;SDS011;22388;52.432;20.662;2023-12-20T13:09:12;14.35;;;7.28;;
36359;SDS011;22388;52.432;20.662;2023-12-20T13:12:36;13.30;;;6.50;;
36359;SDS011;22388;52.432;20.662;2023-12-20T13:16:00;12.70;;;5.18;;
36359;SDS011;22388;52.432;20.662;2023-12-20T13:19:24;12.98;;;5.65;;
36359;SDS011;22388;52.432;20.662;2023-12-20T13:22:49;9.82;;;4.97;;
36359;SDS011;22388;52.432;20.662;2023-12-20T13:26:13;10.63;;;5.30;;
36359;SDS011;22388;52.432;20.662;2023-12-20T13:29:38;9.35;;;4.90;;
36359;SDS011;22388;52.432;20.662;2023-12-20T13:33:02;10.25;;;5.32;;
36359;SDS011;22388;52.432;20.662;2023-12-20T13:36:26;10.65;;;5.13;;
36359;SDS011;22388;52.432;20.662;2023-12-20T13:39:51;9.07;;;5.22;;
36359;SDS011;22388;52.432;20.662;2023-12-20T13:43:15;9.70;;;6.22;;
36359;SDS011;22388;52.432;20.662;2023-12-20T13:46:40;14.10;;;6.53;;
36359;SDS011;22388;52.432;20.662;2023-12-20T13:50:04;11.57;;;7.05;;
36359;SDS011;22388;52.432;20.662;2023-12-20T13:53:29;11.73;;;7.80;;
36359;SDS011;22388;52.432;20.662;2023-12-20T13:56:53;11.52;;;6.95;;
36359;SDS011;22388;52.432;20.662;2023-12-20T14:00:17;11.77;;;6.95;;
36359;SDS011;22388;52.432;20.662;2023-12-20T14:03:41;15.60;;;8.40;;
36359;SDS011;22388;52.432;20.662;2023-12-20T14:07:06;16.30;;;8.50;;
36359;SDS011;22388;52.432;20.662;2023-12-20T14:10:30;13.40;;;8.75;;
36359;SDS011;22388;52.432;20.662;2023-12-20T14:13:54;14.55;;;8.68;;
36359;SDS011;22388;52.432;20.662;2023-12-20T14:17:21;12.80;;;8.98;;
36359;SDS011;22388;52.432;20.662;2023-12-20T14:20:45;15.27;;;9.20;;
36359;SDS011;22388;52.432;20.662;2023-12-20T14:24:12;16.35;;;9.02;;
36359;SDS011;22388;52.432;20.662;2023-12-20T14:27:38;13.82;;;8.45;;
36359;SDS011;22388;52.432;20.662;2023-12-20T14:31:02;13.38;;;8.30;;
36359;SDS011;22388;52.432;20.662;2023-12-20T14:34:28;16.70;;;8.18;;
36359;SDS011;22388;52.432;20.662;2023-12-20T14:37:52;18.05;;;8.73;;
36359;SDS011;22388;52.432;20.662;2023-12-20T14:41:16;15.13;;;7.60;;
36359;SDS011;22388;52.432;20.662;2023-12-20T14:44:40;17.92;;;7.28;;
36359;SDS011;22388;52.432;20.662;2023-12-20T14:48:06;15.88;;;7.50;;
36359;SDS011;22388;52.432;20.662;2023-12-20T14:51:30;13.55;;;7.25;;
36359;SDS011;22388;52.432;20.662;2023-12-20T14:54:54;16.63;;;7.90;;
36359;SDS011;22388;52.432;20.662;2023-12-20T14:58:19;15.52;;;7.30;;
36359;SDS011;22388;52.432;20.662;2023-12-20T15:01:43;14.68;;;7.32;;
36359;SDS011;22388;52.432;20.662;2023-12-20T15:05:08;14.65;;;6.40;;
36359;SDS011;22388;52.432;20.662;2023-12-20T15:08:37;12.38;;;5.82;;
36359;SDS011;22388;52.432;20.662;2023-12-20T15:12:01;10.90;;;5.05;;
36359;SDS011;22388;52.432;20.662;2023-12-20T15:15:25;12.48;;;5.18;;
36359;SDS011;22388;52.432;20.662;2023-12-20T15:18:50;11.15;;;5.57;;
36359;SDS011;22388;52.432;20.662;2023-12-20T15:22:14;11.05;;;5.40;;
36359;SDS011;22388;52.432;20.662;2023-12-20T15:25:38;14.02;;;5.50;;
36359;SDS011;22388;52.432;20.662;2023-12-20T15:29:03;13.35;;;5.40;;
36359;SDS011;22388;52.432;20.662;2023-12-20T15:32:28;13.95;;;6.03;;
36359;SDS011;22388;52.432;20.662;2023-12-20T15:35:52;20.25;;;6.03;;
36359;SDS011;22388;52.432;20.662;2023-12-20T15:39:16;11.23;;;5.45;;
36359;SDS011;22388;52.432;20.662;2023-12-20T15:42:40;12.73;;;5.75;;
36359;SDS011;22388;52.432;20.662;2023-12-20T15:46:04;16.17;;;6.15;;
36359;SDS011;22388;52.432;20.662;2023-12-20T15:49:28;13.32;;;6.05;;
36359;SDS011;22388;52.432;20.662;2023-12-20T15:52:52;15.52;;;6.15;;
36359;SDS011;22388;52.432;20.662;2023-12-20T15:56:17;16.80;;;6.47;;
36359;SDS011;22388;52.432;20.662;2023-12-20T15:59:41;13.10;;;6.38;;
36359;SDS011;22388;52.432;20.662;2023-12-20T16:03:05;13.95;;;6.10;;
36359;SDS011;22388;52.432;20.662;2023-12-20T16:06:30;13.38;;;6.18;;
36359;SDS011;22388;52.432;20.662;2023-12-20T16:09:54;14.18;;;6.82;;
36359;SDS011;22388;52.432;20.662;2023-12-20T16:13:18;16.52;;;6.00;;
36359;SDS011;22388;52.432;20.662;2023-12-20T16:16:45;15.35;;;6.07;;
36359;SDS011;22388;52.432;20.662;2023-12-20T16:20:09;16.65;;;6.43;;
36359;SDS011;22388;52.432;20.662;2023-12-20T16:23:35;13.98;;;5.90;;
36359;SDS011;22388;52.432;20.662;2023-12-20T16:27:00;14.63;;;5.95;;
36359;SDS011;22388;52.432;20.662;2023-12-20T16:30:24;15.90;;;5.53;;
36359;SDS011;22388;52.432;20.662;2023-12-20T16:33:48;11.18;;;5.05;;
36359;SDS011;22388;52.432;20.662;2023-12-20T16:37:13;12.80;;;5.75;;
36359;SDS011;22388;52.432;20.662;2023-12-20T16:40:37;15.13;;;5.53;;
36359;SDS011;22388;52.432;20.662;2023-12-20T16:44:01;16.23;;;5.53;;
36359;SDS011;22388;52.432;20.662;2023-12-20T16:47:25;16.83;;;5.93;;
36359;SDS011;22388;52.432;20.662;2023-12-20T16:50:49;17.60;;;5.75;;
36359;SDS011;22388;52.432;20.662;2023-12-20T16:54:13;15.05;;;5.72;;
36359;SDS011;22388;52.432;20.662;2023-12-20T16:57:39;14.45;;;5.72;;
36359;SDS011;22388;52.432;20.662;2023-12-20T17:01:03;14.73;;;6.30;;
36359;SDS011;22388;52.432;20.662;2023-12-20T17:04:29;15.88;;;6.95;;
36359;SDS011;22388;52.432;20.662;2023-12-20T17:07:53;14.55;;;6.88;;
36359;SDS011;22388;52.432;20.662;2023-12-20T17:11:17;16.45;;;6.75;;
36359;SDS011;22388;52.432;20.662;2023-12-20T17:14:41;19.42;;;6.55;;
36359;SDS011;22388;52.432;20.662;2023-12-20T17:18:06;15.65;;;6.70;;
36359;SDS011;22388;52.432;20.662;2023-12-20T17:21:31;15.98;;;7.07;;
36359;SDS011;22388;52.432;20.662;2023-12-20T17:24:55;14.20;;;6.72;;
36359;SDS011;22388;52.432;20.662;2023-12-20T17:28:19;13.93;;;5.63;;
36359;SDS011;22388;52.432;20.662;2023-12-20T17:31:43;17.67;;;6.28;;
36359;SDS011;22388;52.432;20.662;2023-12-20T17:35:14;17.88;;;5.95;;
36359;SDS011;22388;52.432;20.662;2023-12-20T17:38:41;15.05;;;5.90;;
36359;SDS011;22388;52.432;20.662;2023-12-20T17:42:05;17.02;;;6.07;;
36359;SDS011;22388;52.432;20.662;2023-12-20T17:45:30;14.35;;;5.78;;
36359;SDS011;22388;52.432;20.662;2023-12-20T17:48:54;15.27;;;5.10;;
36359;SDS011;22388;52.432;20.662;2023-12-20T17:52:18;16.92;;;5.75;;
36359;SDS011;22388;52.432;20.662;2023-12-20T17:55:42;13.55;;;5.65;;
36359;SDS011;22388;52.432;20.662;2023-12-20T17:59:06;16.17;;;5.53;;
36359;SDS011;22388;52.432;20.662;2023-12-20T18:02:37;16.00;;;5.93;;
36359;SDS011;22388;52.432;20.662;2023-12-20T18:06:01;14.13;;;6.22;;
36359;SDS011;22388;52.432;20.662;2023-12-20T18:09:25;14.77;;;6.53;;
36359;SDS011;22388;52.432;20.662;2023-12-20T18:12:50;18.02;;;7.22;;
36359;SDS011;22388;52.432;20.662;2023-12-20T18:16:14;18.13;;;7.35;;
36359;SDS011;22388;52.432;20.662;2023-12-20T18:19:38;14.52;;;7.07;;
36359;SDS011;22388;52.432;20.662;2023-12-20T18:23:05;17.70;;;7.13;;
36359;SDS011;22388;52.432;20.662;2023-12-20T18:26:30;14.40;;;7.30;;
36359;SDS011;22388;52.432;20.662;2023-12-20T18:29:54;17.63;;;5.93;;
36359;SDS011;22388;52.432;20.662;2023-12-20T18:33:18;12.98;;;6.45;;
36359;SDS011;22388;52.432;20.662;2023-12-20T18:36:43;15.00;;;6.13;;
36359;SDS011;22388;52.432;20.662;2023-12-20T18:40:08;18.00;;;5.93;;
36359;SDS011;22388;52.432;20.662;2023-12-20T18:43:33;16.27;;;6.22;;
36359;SDS011;22388;52.432;20.662;2023-12-20T18:46:57;13.63;;;5.88;;
36359;SDS011;22388;52.432;20.662;2023-12-20T18:50:21;20.65;;;7.00;;
36359;SDS011;22388;52.432;20.662;2023-12-20T18:53:45;18.73;;;6.03;;
36359;SDS011;22388;52.432;20.662;2023-12-20T18:57:11;13.80;;;5.22;;
36359;SDS011;22388;52.432;20.662;2023-12-20T19:00:36;12.65;;;5.22;;
36359;SDS011;22388;52.432;20.662;2023-12-20T19:04:00;15.18;;;6.57;;
36359;SDS011;22388;52.432;20.662;2023-12-20T19:07:24;13.55;;;5.10;;
36359;SDS011;22388;52.432;20.662;2023-12-20T19:10:48;15.30;;;5.35;;
36359;SDS011;22388;52.432;20.662;2023-12-20T19:14:12;11.68;;;4.78;;
36359;SDS011;22388;52.432;20.662;2023-12-20T19:17:36;10.48;;;4.90;;
36359;SDS011;22388;52.432;20.662;2023-12-20T19:21:00;10.88;;;4.68;;
36359;SDS011;22388;52.432;20.662;2023-12-20T19:24:24;11.95;;;4.40;;
36359;SDS011;22388;52.432;20.662;2023-12-20T19:27:48;9.57;;;4.25;;
36359;SDS011;22388;52.432;20.662;2023-12-20T19:31:13;8.57;;;3.75;;
36359;SDS011;22388;52.432;20.662;2023-12-20T19:34:37;8.25;;;3.78;;
36359;SDS011;22388;52.432;20.662;2023-12-20T19:38:01;12.48;;;3.10;;
36359;SDS011;22388;52.432;20.662;2023-12-20T19:41:25;8.90;;;2.78;;
36359;SDS011;22388;52.432;20.662;2023-12-20T19:44:50;8.43;;;2.63;;
36359;SDS011;22388;52.432;20.662;2023-12-20T19:48:14;5.03;;;2.47;;
36359;SDS011;22388;52.432;20.662;2023-12-20T19:51:39;6.22;;;2.60;;
36359;SDS011;22388;52.432;20.662;2023-12-20T19:55:03;8.93;;;3.35;;
36359;SDS011;22388;52.432;20.662;2023-12-20T19:58:27;9.75;;;2.90;;